sensor_id;sensor_type;location;lat;lon;timestamp;temperature;humidity
21318;DHT22;10818;50.830;6.524;2023-03-01T00:04:42;-0.70;99.90
21318;DHT22;10818;50.830;6.524;2023-03-01T00:09:42;-0.80;99.90
21318;DHT22;10818;50.830;6.524;2023-03-01T00:14:46;-0.80;99.90
21318;DHT22;10818;50.830;6.524;2023-03-01T00:19:46;-0.90;99.90
21318;DHT22;10818;50.830;6.524;2023-03-01T00:24:46;-1.00;99.90
21318;DHT22;10818;50.830;6.524;2023-03-01T00:29:47;-1.00;99.90
21318;DHT22;10818;50.830;6.524;2023-03-01T00:34:47;-1.00;99.90
21318;DHT22;10818;50.830;6.524;2023-03-01T00:39:54;-1.20;99.90
21318;DHT22;10818;50.830;6.524;2023-03-01T00:44:54;-1.20;99.90
21318;DHT22;10818;50.830;6.524;2023-03-01T00:49:55;-1.30;99.90
21318;DHT22;10818;50.830;6.524;2023-03-01T00:54:55;-1.40;99.90
21318;DHT22;10818;50.830;6.524;2023-03-01T00:59:56;-1.50;99.90
21318;DHT22;10818;50.830;6.524;2023-03-01T01:04:56;-1.50;99.90
21318;DHT22;10818;50.830;6.524;2023-03-01T01:09:57;-1.60;99.90
21318;DHT22;10818;50.830;6.524;2023-03-01T01:14:57;-1.60;99.90
21318;DHT22;10818;50.830;6.524;2023-03-01T01:19:58;-1.70;99.90
21318;DHT22;10818;50.830;6.524;2023-03-01T01:24:58;-1.90;99.90
21318;DHT22;10818;50.830;6.524;2023-03-01T01:29:59;-1.80;99.90
21318;DHT22;10818;50.830;6.524;2023-03-01T01:34:59;-1.80;99.90
21318;DHT22;10818;50.830;6.524;2023-03-01T01:40:00;-1.80;99.90
21318;DHT22;10818;50.830;6.524;2023-03-01T01:50:20;-1.90;99.90
21318;DHT22;10818;50.830;6.524;2023-03-01T01:55:22;-1.90;99.90
21318;DHT22;10818;50.830;6.524;2023-03-01T02:00:24;-2.10;99.90
21318;DHT22;10818;50.830;6.524;2023-03-01T02:10:44;-2.10;99.90
21318;DHT22;10818;50.830;6.524;2023-03-01T02:15:45;-2.20;99.90
21318;DHT22;10818;50.830;6.524;2023-03-01T02:37:10;-2.30;99.90
21318;DHT22;10818;50.830;6.524;2023-03-01T02:42:13;-2.40;99.90
21318;DHT22;10818;50.830;6.524;2023-03-01T02:47:15;-2.30;99.90
21318;DHT22;10818;50.830;6.524;2023-03-01T02:57:16;-2.50;99.90
21318;DHT22;10818;50.830;6.524;2023-03-01T03:02:21;-2.60;99.90
21318;DHT22;10818;50.830;6.524;2023-03-01T03:07:36;-2.80;99.90
21318;DHT22;10818;50.830;6.524;2023-03-01T03:12:38;-2.90;99.90
21318;DHT22;10818;50.830;6.524;2023-03-01T03:17:39;-2.80;99.90
21318;DHT22;10818;50.830;6.524;2023-03-01T03:22:39;-2.80;99.90
21318;DHT22;10818;50.830;6.524;2023-03-01T03:27:41;-2.80;99.90
21318;DHT22;10818;50.830;6.524;2023-03-01T03:32:43;-2.90;99.90
21318;DHT22;10818;50.830;6.524;2023-03-01T03:37:52;-2.90;99.90
21318;DHT22;10818;50.830;6.524;2023-03-01T03:43:02;-2.90;99.90
21318;DHT22;10818;50.830;6.524;2023-03-01T03:48:03;-3.00;99.90
21318;DHT22;10818;50.830;6.524;2023-03-01T03:53:06;-3.00;99.90
21318;DHT22;10818;50.830;6.524;2023-03-01T03:58:07;-3.20;99.90
21318;DHT22;10818;50.830;6.524;2023-03-01T04:03:08;-3.20;99.90
21318;DHT22;10818;50.830;6.524;2023-03-01T04:08:10;-3.20;99.90
21318;DHT22;10818;50.830;6.524;2023-03-01T04:13:11;-3.10;99.90
21318;DHT22;10818;50.830;6.524;2023-03-01T04:18:12;-3.00;99.90
21318;DHT22;10818;50.830;6.524;2023-03-01T04:23:14;-3.10;99.90
21318;DHT22;10818;50.830;6.524;2023-03-01T04:28:16;-3.10;99.90
21318;DHT22;10818;50.830;6.524;2023-03-01T04:33:17;-3.20;99.90
21318;DHT22;10818;50.830;6.524;2023-03-01T04:38:18;-3.30;99.90
21318;DHT22;10818;50.830;6.524;2023-03-01T04:43:19;-3.30;99.90
21318;DHT22;10818;50.830;6.524;2023-03-01T04:48:19;-3.40;99.90
21318;DHT22;10818;50.830;6.524;2023-03-01T04:53:20;-3.50;99.90
21318;DHT22;10818;50.830;6.524;2023-03-01T04:58:20;-3.50;99.90
21318;DHT22;10818;50.830;6.524;2023-03-01T05:03:21;-3.50;99.90
21318;DHT22;10818;50.830;6.524;2023-03-01T05:08:22;-3.40;99.90
21318;DHT22;10818;50.830;6.524;2023-03-01T05:13:22;-3.50;99.90
21318;DHT22;10818;50.830;6.524;2023-03-01T05:18:23;-3.50;99.90
21318;DHT22;10818;50.830;6.524;2023-03-01T05:23:26;-3.50;99.90
21318;DHT22;10818;50.830;6.524;2023-03-01T05:28:26;-3.60;99.90
21318;DHT22;10818;50.830;6.524;2023-03-01T05:33:28;-3.70;99.90
21318;DHT22;10818;50.830;6.524;2023-03-01T05:38:28;-3.70;99.90
21318;DHT22;10818;50.830;6.524;2023-03-01T05:43:32;-3.60;99.90
21318;DHT22;10818;50.830;6.524;2023-03-01T05:48:35;-3.50;99.90
21318;DHT22;10818;50.830;6.524;2023-03-01T05:53:36;-3.50;99.90
21318;DHT22;10818;50.830;6.524;2023-03-01T05:58:36;-3.40;99.90
21318;DHT22;10818;50.830;6.524;2023-03-01T06:03:38;-3.40;99.90
21318;DHT22;10818;50.830;6.524;2023-03-01T06:08:39;-3.40;99.90
21318;DHT22;10818;50.830;6.524;2023-03-01T06:13:40;-3.30;99.90
21318;DHT22;10818;50.830;6.524;2023-03-01T06:18:41;-3.20;99.90
21318;DHT22;10818;50.830;6.524;2023-03-01T06:23:41;-3.20;99.90
21318;DHT22;10818;50.830;6.524;2023-03-01T06:28:42;-3.20;99.90
21318;DHT22;10818;50.830;6.524;2023-03-01T06:33:42;-3.10;99.90
21318;DHT22;10818;50.830;6.524;2023-03-01T06:38:44;-3.10;99.90
21318;DHT22;10818;50.830;6.524;2023-03-01T06:43:45;-3.00;99.90
21318;DHT22;10818;50.830;6.524;2023-03-01T06:48:45;-3.10;99.90
21318;DHT22;10818;50.830;6.524;2023-03-01T06:53:46;-3.00;99.90
21318;DHT22;10818;50.830;6.524;2023-03-01T06:58:46;-3.00;99.90
21318;DHT22;10818;50.830;6.524;2023-03-01T07:03:47;-2.80;99.90
21318;DHT22;10818;50.830;6.524;2023-03-01T07:08:47;-2.70;99.90
21318;DHT22;10818;50.830;6.524;2023-03-01T07:13:48;-2.50;99.90
21318;DHT22;10818;50.830;6.524;2023-03-01T07:18:48;-2.20;99.90
21318;DHT22;10818;50.830;6.524;2023-03-01T07:23:49;-2.00;99.90
21318;DHT22;10818;50.830;6.524;2023-03-01T07:28:50;-1.80;99.90
21318;DHT22;10818;50.830;6.524;2023-03-01T07:33:50;-1.60;99.90
21318;DHT22;10818;50.830;6.524;2023-03-01T07:38:51;-1.30;99.90
21318;DHT22;10818;50.830;6.524;2023-03-01T07:43:52;-1.10;99.90
21318;DHT22;10818;50.830;6.524;2023-03-01T07:48:52;-0.80;99.90
21318;DHT22;10818;50.830;6.524;2023-03-01T07:53:53;-0.50;99.90
21318;DHT22;10818;50.830;6.524;2023-03-01T07:58:53;-0.20;99.90
21318;DHT22;10818;50.830;6.524;2023-03-01T08:03:53;0.10;99.90
21318;DHT22;10818;50.830;6.524;2023-03-01T08:08:54;0.40;99.90
21318;DHT22;10818;50.830;6.524;2023-03-01T08:13:55;0.90;99.90
21318;DHT22;10818;50.830;6.524;2023-03-01T08:18:56;4.60;99.90
21318;DHT22;10818;50.830;6.524;2023-03-01T08:24:01;10.20;99.90
21318;DHT22;10818;50.830;6.524;2023-03-01T08:29:02;13.60;95.80
21318;DHT22;10818;50.830;6.524;2023-03-01T08:34:12;14.30;91.90
21318;DHT22;10818;50.830;6.524;2023-03-01T08:39:14;13.90;89.10
21318;DHT22;10818;50.830;6.524;2023-03-01T08:44:15;16.00;85.00
21318;DHT22;10818;50.830;6.524;2023-03-01T08:49:17;16.50;75.00
21318;DHT22;10818;50.830;6.524;2023-03-01T08:54:19;17.70;69.60
21318;DHT22;10818;50.830;6.524;2023-03-01T08:59:19;19.10;65.80
21318;DHT22;10818;50.830;6.524;2023-03-01T09:04:20;17.50;76.00
21318;DHT22;10818;50.830;6.524;2023-03-01T09:09:20;13.70;67.90
21318;DHT22;10818;50.830;6.524;2023-03-01T09:14:21;13.30;72.40
21318;DHT22;10818;50.830;6.524;2023-03-01T09:19:21;12.40;74.10
21318;DHT22;10818;50.830;6.524;2023-03-01T09:24:22;10.40;80.20
21318;DHT22;10818;50.830;6.524;2023-03-01T09:29:23;7.80;92.60
21318;DHT22;10818;50.830;6.524;2023-03-01T09:34:24;7.00;95.60
21318;DHT22;10818;50.830;6.524;2023-03-01T09:39:24;6.50;98.60
21318;DHT22;10818;50.830;6.524;2023-03-01T09:44:30;6.50;99.90
21318;DHT22;10818;50.830;6.524;2023-03-01T09:49:33;6.20;99.90
21318;DHT22;10818;50.830;6.524;2023-03-01T09:54:34;6.40;99.90
21318;DHT22;10818;50.830;6.524;2023-03-01T10:04:45;5.90;99.90
21318;DHT22;10818;50.830;6.524;2023-03-01T10:09:46;5.90;99.90
21318;DHT22;10818;50.830;6.524;2023-03-01T10:15:22;5.70;99.90
21318;DHT22;10818;50.830;6.524;2023-03-01T10:20:24;5.70;99.90
21318;DHT22;10818;50.830;6.524;2023-03-01T10:30:44;4.90;99.90
21318;DHT22;10818;50.830;6.524;2023-03-01T10:35:45;5.30;99.90
21318;DHT22;10818;50.830;6.524;2023-03-01T10:40:55;5.50;99.90
21318;DHT22;10818;50.830;6.524;2023-03-01T10:45:57;5.30;99.90
21318;DHT22;10818;50.830;6.524;2023-03-01T10:55:59;5.40;99.90
21318;DHT22;10818;50.830;6.524;2023-03-01T11:01:01;5.60;99.90
21318;DHT22;10818;50.830;6.524;2023-03-01T11:06:13;5.50;99.90
21318;DHT22;10818;50.830;6.524;2023-03-01T11:11:33;5.60;99.90
21318;DHT22;10818;50.830;6.524;2023-03-01T11:16:35;5.80;99.90
21318;DHT22;10818;50.830;6.524;2023-03-01T11:21:55;5.70;99.90
21318;DHT22;10818;50.830;6.524;2023-03-01T11:26:57;5.80;99.90
21318;DHT22;10818;50.830;6.524;2023-03-01T11:32:01;6.00;99.90
21318;DHT22;10818;50.830;6.524;2023-03-01T11:37:03;5.90;99.90
21318;DHT22;10818;50.830;6.524;2023-03-01T11:42:17;6.00;99.90
21318;DHT22;10818;50.830;6.524;2023-03-01T12:03:14;6.20;99.90
21318;DHT22;10818;50.830;6.524;2023-03-01T12:24:02;6.90;99.90
21318;DHT22;10818;50.830;6.524;2023-03-01T12:44:42;7.20;99.90
21318;DHT22;10818;50.830;6.524;2023-03-01T12:50:03;7.00;99.90
21318;DHT22;10818;50.830;6.524;2023-03-01T12:55:18;7.10;99.90
21318;DHT22;10818;50.830;6.524;2023-03-01T13:06:11;7.50;98.60
21318;DHT22;10818;50.830;6.524;2023-03-01T13:10:46;7.40;99.90
21318;DHT22;10818;50.830;6.524;2023-03-01T13:15:48;7.80;99.30
21318;DHT22;10818;50.830;6.524;2023-03-01T13:20:55;7.60;97.90
21318;DHT22;10818;50.830;6.524;2023-03-01T13:26:16;7.40;98.10
21318;DHT22;10818;50.830;6.524;2023-03-01T13:46:42;7.60;95.70
21318;DHT22;10818;50.830;6.524;2023-03-01T13:51:46;7.90;95.80
21318;DHT22;10818;50.830;6.524;2023-03-01T13:56:47;8.10;95.60
21318;DHT22;10818;50.830;6.524;2023-03-01T14:01:54;8.10;96.60
21318;DHT22;10818;50.830;6.524;2023-03-01T14:17:37;8.20;95.10
21318;DHT22;10818;50.830;6.524;2023-03-01T14:22:40;7.90;94.90
21318;DHT22;10818;50.830;6.524;2023-03-01T14:27:42;8.00;96.00
21318;DHT22;10818;50.830;6.524;2023-03-01T14:32:43;8.10;96.80
21318;DHT22;10818;50.830;6.524;2023-03-01T14:37:52;8.30;96.90
21318;DHT22;10818;50.830;6.524;2023-03-01T14:42:53;8.20;97.80
21318;DHT22;10818;50.830;6.524;2023-03-01T14:47:54;8.10;98.20
21318;DHT22;10818;50.830;6.524;2023-03-01T14:52:59;8.00;97.80
21318;DHT22;10818;50.830;6.524;2023-03-01T14:58:05;7.90;97.90
21318;DHT22;10818;50.830;6.524;2023-03-01T15:03:14;8.00;98.10
21318;DHT22;10818;50.830;6.524;2023-03-01T15:08:19;7.90;98.50
21318;DHT22;10818;50.830;6.524;2023-03-01T15:13:21;7.60;98.40
21318;DHT22;10818;50.830;6.524;2023-03-01T15:18:25;7.80;98.50
21318;DHT22;10818;50.830;6.524;2023-03-01T15:23:27;7.70;98.80
21318;DHT22;10818;50.830;6.524;2023-03-01T15:28:29;7.90;98.70
21318;DHT22;10818;50.830;6.524;2023-03-01T15:33:32;7.60;98.90
21318;DHT22;10818;50.830;6.524;2023-03-01T15:38:34;7.40;99.80
21318;DHT22;10818;50.830;6.524;2023-03-01T15:43:39;7.30;99.90
21318;DHT22;10818;50.830;6.524;2023-03-01T15:48:39;7.20;99.90
21318;DHT22;10818;50.830;6.524;2023-03-01T15:53:45;7.20;99.90
21318;DHT22;10818;50.830;6.524;2023-03-01T15:58:48;7.20;99.90
21318;DHT22;10818;50.830;6.524;2023-03-01T16:03:48;7.10;99.90
21318;DHT22;10818;50.830;6.524;2023-03-01T16:08:49;6.90;99.90
21318;DHT22;10818;50.830;6.524;2023-03-01T16:13:49;7.00;99.90
21318;DHT22;10818;50.830;6.524;2023-03-01T16:18:50;6.90;99.90
21318;DHT22;10818;50.830;6.524;2023-03-01T16:23:51;6.70;99.90
21318;DHT22;10818;50.830;6.524;2023-03-01T16:28:54;6.70;99.90
21318;DHT22;10818;50.830;6.524;2023-03-01T16:33:56;6.50;99.90
21318;DHT22;10818;50.830;6.524;2023-03-01T16:38:58;6.40;99.90
21318;DHT22;10818;50.830;6.524;2023-03-01T16:43:58;6.20;99.90
21318;DHT22;10818;50.830;6.524;2023-03-01T16:48:59;6.20;99.90
21318;DHT22;10818;50.830;6.524;2023-03-01T16:53:59;6.20;99.90
21318;DHT22;10818;50.830;6.524;2023-03-01T16:59:00;6.00;99.90
21318;DHT22;10818;50.830;6.524;2023-03-01T17:04:00;5.90;99.90
21318;DHT22;10818;50.830;6.524;2023-03-01T17:09:01;5.70;99.90
21318;DHT22;10818;50.830;6.524;2023-03-01T17:14:01;5.40;99.90
21318;DHT22;10818;50.830;6.524;2023-03-01T17:19:02;5.20;99.90
21318;DHT22;10818;50.830;6.524;2023-03-01T17:24:02;5.00;99.90
21318;DHT22;10818;50.830;6.524;2023-03-01T17:29:03;4.90;99.90
21318;DHT22;10818;50.830;6.524;2023-03-01T17:34:04;4.60;99.90
21318;DHT22;10818;50.830;6.524;2023-03-01T17:39:04;4.40;99.90
21318;DHT22;10818;50.830;6.524;2023-03-01T17:44:05;4.40;99.90
21318;DHT22;10818;50.830;6.524;2023-03-01T17:49:05;4.30;99.90
21318;DHT22;10818;50.830;6.524;2023-03-01T17:54:06;4.20;99.90
21318;DHT22;10818;50.830;6.524;2023-03-01T17:59:06;4.20;99.90
21318;DHT22;10818;50.830;6.524;2023-03-01T18:04:07;4.10;99.90
21318;DHT22;10818;50.830;6.524;2023-03-01T18:09:07;4.00;99.90
21318;DHT22;10818;50.830;6.524;2023-03-01T18:14:08;4.00;99.90
21318;DHT22;10818;50.830;6.524;2023-03-01T18:19:09;4.00;99.90
21318;DHT22;10818;50.830;6.524;2023-03-01T18:24:10;3.80;99.90
21318;DHT22;10818;50.830;6.524;2023-03-01T18:29:10;3.70;99.90
21318;DHT22;10818;50.830;6.524;2023-03-01T18:34:11;3.60;99.90
21318;DHT22;10818;50.830;6.524;2023-03-01T18:39:11;3.50;99.90
21318;DHT22;10818;50.830;6.524;2023-03-01T18:44:14;3.40;99.90
21318;DHT22;10818;50.830;6.524;2023-03-01T18:49:15;3.30;99.90
21318;DHT22;10818;50.830;6.524;2023-03-01T18:54:15;3.20;99.90
21318;DHT22;10818;50.830;6.524;2023-03-01T18:59:16;3.20;99.90
21318;DHT22;10818;50.830;6.524;2023-03-01T19:04:16;2.90;99.90
21318;DHT22;10818;50.830;6.524;2023-03-01T19:09:16;2.90;99.90
21318;DHT22;10818;50.830;6.524;2023-03-01T19:14:17;2.80;99.90
21318;DHT22;10818;50.830;6.524;2023-03-01T19:19:17;2.70;99.90
21318;DHT22;10818;50.830;6.524;2023-03-01T19:24:18;2.60;99.90
21318;DHT22;10818;50.830;6.524;2023-03-01T19:29:18;2.60;99.90
21318;DHT22;10818;50.830;6.524;2023-03-01T19:34:19;2.50;99.90
21318;DHT22;10818;50.830;6.524;2023-03-01T19:39:22;2.50;99.90
21318;DHT22;10818;50.830;6.524;2023-03-01T19:44:22;2.50;99.90
21318;DHT22;10818;50.830;6.524;2023-03-01T19:49:24;2.40;99.90
21318;DHT22;10818;50.830;6.524;2023-03-01T19:54:26;2.40;99.90
21318;DHT22;10818;50.830;6.524;2023-03-01T19:59:26;2.30;99.90
21318;DHT22;10818;50.830;6.524;2023-03-01T20:04:27;2.30;99.90
21318;DHT22;10818;50.830;6.524;2023-03-01T20:09:27;2.20;99.90
21318;DHT22;10818;50.830;6.524;2023-03-01T20:14:28;2.00;99.90
21318;DHT22;10818;50.830;6.524;2023-03-01T20:19:28;2.00;99.90
21318;DHT22;10818;50.830;6.524;2023-03-01T20:24:29;1.90;99.90
21318;DHT22;10818;50.830;6.524;2023-03-01T20:29:32;1.90;99.90
21318;DHT22;10818;50.830;6.524;2023-03-01T20:34:33;1.80;99.90
21318;DHT22;10818;50.830;6.524;2023-03-01T20:39:35;1.70;99.90
21318;DHT22;10818;50.830;6.524;2023-03-01T20:44:35;1.70;99.90
21318;DHT22;10818;50.830;6.524;2023-03-01T20:49:42;1.70;99.90
21318;DHT22;10818;50.830;6.524;2023-03-01T20:54:42;1.60;99.90
21318;DHT22;10818;50.830;6.524;2023-03-01T20:59:43;1.60;99.90
21318;DHT22;10818;50.830;6.524;2023-03-01T21:04:43;1.60;99.90
21318;DHT22;10818;50.830;6.524;2023-03-01T21:09:43;1.60;99.90
21318;DHT22;10818;50.830;6.524;2023-03-01T21:14:44;1.60;99.90
21318;DHT22;10818;50.830;6.524;2023-03-01T21:19:46;1.60;99.90
21318;DHT22;10818;50.830;6.524;2023-03-01T21:24:46;1.50;99.90
21318;DHT22;10818;50.830;6.524;2023-03-01T21:29:48;1.50;99.90
21318;DHT22;10818;50.830;6.524;2023-03-01T21:34:48;1.40;99.90
21318;DHT22;10818;50.830;6.524;2023-03-01T21:39:49;1.30;99.90
21318;DHT22;10818;50.830;6.524;2023-03-01T21:44:49;1.20;99.90
21318;DHT22;10818;50.830;6.524;2023-03-01T21:49:50;1.20;99.90
21318;DHT22;10818;50.830;6.524;2023-03-01T21:54:50;1.20;99.90
21318;DHT22;10818;50.830;6.524;2023-03-01T21:59:51;1.10;99.90
21318;DHT22;10818;50.830;6.524;2023-03-01T22:04:52;1.00;99.90
21318;DHT22;10818;50.830;6.524;2023-03-01T22:09:56;0.90;99.90
21318;DHT22;10818;50.830;6.524;2023-03-01T22:14:57;0.90;99.90
21318;DHT22;10818;50.830;6.524;2023-03-01T22:19:57;0.80;99.90
21318;DHT22;10818;50.830;6.524;2023-03-01T22:24:58;0.70;99.90
21318;DHT22;10818;50.830;6.524;2023-03-01T22:29:58;0.70;99.90
21318;DHT22;10818;50.830;6.524;2023-03-01T22:34:58;0.80;99.90
21318;DHT22;10818;50.830;6.524;2023-03-01T22:39:59;0.70;99.90
21318;DHT22;10818;50.830;6.524;2023-03-01T22:44:59;0.80;99.90
21318;DHT22;10818;50.830;6.524;2023-03-01T22:50:00;0.70;99.90
21318;DHT22;10818;50.830;6.524;2023-03-01T22:55:00;0.70;99.90
21318;DHT22;10818;50.830;6.524;2023-03-01T23:00:03;0.70;99.90
21318;DHT22;10818;50.830;6.524;2023-03-01T23:05:04;0.60;99.90
21318;DHT22;10818;50.830;6.524;2023-03-01T23:10:04;0.60;99.90
21318;DHT22;10818;50.830;6.524;2023-03-01T23:15:06;0.50;99.90
21318;DHT22;10818;50.830;6.524;2023-03-01T23:20:07;0.60;99.90
21318;DHT22;10818;50.830;6.524;2023-03-01T23:25:10;0.50;99.90
21318;DHT22;10818;50.830;6.524;2023-03-01T23:30:12;0.40;99.90
21318;DHT22;10818;50.830;6.524;2023-03-01T23:35:12;0.30;99.90
21318;DHT22;10818;50.830;6.524;2023-03-01T23:40:13;0.20;99.90
21318;DHT22;10818;50.830;6.524;2023-03-01T23:45:13;0.10;99.90
21318;DHT22;10818;50.830;6.524;2023-03-01T23:50:14;0.10;99.90
21318;DHT22;10818;50.830;6.524;2023-03-01T23:55:14;0.30;99.90
